Time;durP1;ratioP1;P1;durP2;ratioP2;P2;SDS_P1;SDS_P2;PMS_P1;PMS_P2;Temp;Humidity;BMP_temperature;BMP_pressure;BME280_temperature;BME280_humidity;BME280_pressure;Samples;Min_cycle;Max_cycle;Signal;HPM_P1;HPM_P2
2023/10/20 00:00:39;;;;;;;32.22;18.00;;;;;;;;;;4997518;28;25055;-61
2023/10/20 00:03:06;;;;;;;28.17;17.63;;;;;;;;;;5013640;28;25062;-62
2023/10/20 00:05:33;;;;;;;29.85;17.40;;;;;;;;;;5017174;28;25052;-61
2023/10/20 00:08:00;;;;;;;28.95;18.63;;;;;;;;;;5019002;28;25087;-61
2023/10/20 00:10:26;;;;;;;22.95;16.33;;;;;;;;;;5020228;28;25088;-62
2023/10/20 00:12:52;;;;;;;35.78;19.80;;;;;;;;;;5019346;28;25058;-62
2023/10/20 00:15:20;;;;;;;30.75;17.40;;;;;;;;;;5015884;28;25081;-62
2023/10/20 00:17:46;;;;;;;35.40;19.25;;;;;;;;;;5017843;28;25096;-62
2023/10/20 00:20:12;;;;;;;36.78;21.30;;;;;;;;;;5010143;28;25096;-61
2023/10/20 00:22:38;;;;;;;31.90;19.85;;;;;;;;;;5022856;28;25109;-62
2023/10/20 00:25:05;;;;;;;36.10;22.15;;;;;;;;;;5012032;28;25070;-62
2023/10/20 00:27:31;;;;;;;38.28;22.23;;;;;;;;;;5020722;28;25141;-63
2023/10/20 00:29:57;;;;;;;39.65;22.00;;;;;;;;;;5014818;28;25064;-62
2023/10/20 00:32:23;;;;;;;41.50;22.48;;;;;;;;;;5012727;28;25143;-62
2023/10/20 00:34:49;;;;;;;40.10;23.45;;;;;;;;;;5015285;28;25070;-62
2023/10/20 00:37:15;;;;;;;39.00;24.02;;;;;;;;;;5010739;28;25073;-63
2023/10/20 00:39:41;;;;;;;36.63;22.25;;;;;;;;;;4988691;28;25107;-62
2023/10/20 00:42:08;;;;;;;36.88;22.25;;;;;;;;;;5008427;28;25063;-64
2023/10/20 00:44:33;;;;;;;38.70;24.42;;;;;;;;;;5008213;28;25070;-63
2023/10/20 00:46:59;;;;;;;40.63;23.58;;;;;;;;;;5015241;28;25098;-64
2023/10/20 00:49:25;;;;;;;42.53;24.50;;;;;;;;;;5011177;28;25083;-62
2023/10/20 00:51:52;;;;;;;33.85;23.02;;;;;;;;;;5020867;28;25058;-63
2023/10/20 00:54:20;;;;;;;41.97;25.92;;;;;;;;;;5005785;28;25092;-63
2023/10/20 00:56:47;;;;;;;48.33;24.63;;;;;;;;;;4999279;28;25069;-64
2023/10/20 00:59:13;;;;;;;46.22;24.83;;;;;;;;;;5010835;28;25049;-64
2023/10/20 01:01:39;;;;;;;42.13;25.60;;;;;;;;;;5018095;28;25109;-62
2023/10/20 01:04:06;;;;;;;40.20;25.10;;;;;;;;;;5016046;28;25060;-62
2023/10/20 01:06:32;;;;;;;41.65;25.02;;;;;;;;;;5010760;28;25114;-63
2023/10/20 01:08:58;;;;;;;43.90;25.85;;;;;;;;;;5001690;28;25053;-64
2023/10/20 01:11:25;;;;;;;38.80;23.42;;;;;;;;;;5022984;28;25113;-64
2023/10/20 01:13:51;;;;;;;47.80;26.55;;;;;;;;;;5024549;28;25065;-63
2023/10/20 01:16:18;;;;;;;37.38;22.63;;;;;;;;;;4995409;28;25075;-62
2023/10/20 01:18:44;;;;;;;41.72;25.13;;;;;;;;;;5011700;28;25056;-62
2023/10/20 01:21:10;;;;;;;40.95;25.67;;;;;;;;;;5010666;28;25057;-64
2023/10/20 01:23:37;;;;;;;44.10;25.00;;;;;;;;;;5009727;28;25044;-64
2023/10/20 01:26:03;;;;;;;38.70;27.23;;;;;;;;;;5017542;28;25335;-64
2023/10/20 01:28:29;;;;;;;44.35;27.77;;;;;;;;;;5013843;28;25059;-63
2023/10/20 01:30:58;;;;;;;43.03;27.48;;;;;;;;;;5017681;28;25069;-63
2023/10/20 01:33:25;;;;;;;49.03;30.17;;;;;;;;;;5016799;28;25069;-64
2023/10/20 01:35:51;;;;;;;51.15;28.90;;;;;;;;;;5015424;28;25078;-65
2023/10/20 01:38:17;;;;;;;40.72;25.77;;;;;;;;;;5012927;28;25082;-67
2023/10/20 01:40:43;;;;;;;46.88;29.00;;;;;;;;;;5019107;28;25058;-64
2023/10/20 01:43:09;;;;;;;42.55;27.65;;;;;;;;;;5017896;28;25075;-64
2023/10/20 01:45:35;;;;;;;52.65;29.25;;;;;;;;;;5018198;28;25053;-64
2023/10/20 01:48:01;;;;;;;47.17;26.98;;;;;;;;;;5015333;28;25142;-65
2023/10/20 01:50:27;;;;;;;48.30;27.92;;;;;;;;;;5014792;28;25056;-64
2023/10/20 01:52:53;;;;;;;43.58;27.05;;;;;;;;;;5010600;28;25142;-66
2023/10/20 01:55:19;;;;;;;51.13;29.00;;;;;;;;;;5012943;28;25061;-64
2023/10/20 01:57:45;;;;;;;43.83;27.42;;;;;;;;;;5015291;28;25122;-64
2023/10/20 02:00:13;;;;;;;44.75;27.67;;;;;;;;;;5006493;28;25068;-64
2023/10/20 02:02:39;;;;;;;40.72;27.50;;;;;;;;;;5009770;28;25067;-63
2023/10/20 02:05:08;;;;;;;46.63;28.38;;;;;;;;;;5016293;28;25058;-63
2023/10/20 02:07:34;;;;;;;43.92;27.58;;;;;;;;;;5007581;28;25101;-63
2023/10/20 02:10:00;;;;;;;48.25;29.08;;;;;;;;;;5011098;28;25179;-65
2023/10/20 02:12:26;;;;;;;42.30;25.95;;;;;;;;;;5012666;28;25077;-62
2023/10/20 02:14:52;;;;;;;47.72;28.65;;;;;;;;;;5012723;28;25049;-64
2023/10/20 02:17:19;;;;;;;51.65;28.42;;;;;;;;;;5014290;28;25067;-64
2023/10/20 02:19:45;;;;;;;49.15;28.85;;;;;;;;;;5018766;28;25099;-64
2023/10/20 02:22:11;;;;;;;48.63;27.52;;;;;;;;;;5015943;28;25098;-64
2023/10/20 02:24:37;;;;;;;53.47;29.35;;;;;;;;;;5018677;28;25069;-65
2023/10/20 02:27:03;;;;;;;45.63;27.75;;;;;;;;;;5008650;28;25069;-63
2023/10/20 02:29:29;;;;;;;47.70;29.58;;;;;;;;;;5007568;28;25054;-64
2023/10/20 02:31:56;;;;;;;48.60;29.50;;;;;;;;;;5012304;28;25091;-63
2023/10/20 02:34:23;;;;;;;49.00;30.90;;;;;;;;;;5008298;28;25138;-64
2023/10/20 02:36:49;;;;;;;49.25;30.52;;;;;;;;;;5013823;28;25060;-62
2023/10/20 02:39:15;;;;;;;50.78;29.75;;;;;;;;;;5013420;28;25074;-64
2023/10/20 02:41:41;;;;;;;43.00;27.92;;;;;;;;;;5009490;28;25061;-64
2023/10/20 02:44:07;;;;;;;46.28;28.88;;;;;;;;;;5009580;28;25078;-64
2023/10/20 02:46:33;;;;;;;46.53;28.15;;;;;;;;;;5008011;28;25147;-63
2023/10/20 02:48:59;;;;;;;42.15;27.38;;;;;;;;;;5012889;28;25073;-63
2023/10/20 02:51:25;;;;;;;45.03;26.75;;;;;;;;;;5007226;28;25075;-64
2023/10/20 02:53:51;;;;;;;50.80;30.70;;;;;;;;;;5009033;28;25061;-64
2023/10/20 02:56:18;;;;;;;59.40;30.95;;;;;;;;;;5013281;28;25096;-63
2023/10/20 02:58:45;;;;;;;47.72;29.38;;;;;;;;;;5008637;28;25065;-64
2023/10/20 03:01:12;;;;;;;41.65;29.00;;;;;;;;;;5009808;28;25060;-65
2023/10/20 03:03:38;;;;;;;44.92;29.48;;;;;;;;;;5013981;28;25069;-65
2023/10/20 03:06:06;;;;;;;48.65;29.95;;;;;;;;;;5014861;28;25078;-65
2023/10/20 03:08:32;;;;;;;49.35;29.90;;;;;;;;;;5014927;28;25122;-65
2023/10/20 03:10:58;;;;;;;52.80;32.78;;;;;;;;;;5010630;28;25134;-64
2023/10/20 03:13:25;;;;;;;52.50;30.73;;;;;;;;;;5014997;28;25078;-64
2023/10/20 03:15:51;;;;;;;49.60;31.65;;;;;;;;;;5015178;28;25066;-64
2023/10/20 03:18:17;;;;;;;44.20;29.30;;;;;;;;;;5012403;28;25079;-65
2023/10/20 03:20:47;;;;;;;48.75;31.15;;;;;;;;;;5009309;28;25066;-64
2023/10/20 03:23:14;;;;;;;46.38;30.77;;;;;;;;;;5010227;28;25066;-66
2023/10/20 03:25:40;;;;;;;43.97;32.20;;;;;;;;;;5014605;28;25053;-63
2023/10/20 03:28:07;;;;;;;53.70;32.55;;;;;;;;;;5014977;28;25081;-64
2023/10/20 03:30:52;;;;;;;53.67;33.83;;;;;;;;;;4993735;28;25091;-63
2023/10/20 03:33:18;;;;;;;46.25;30.80;;;;;;;;;;5011556;28;25157;-63
2023/10/20 03:35:45;;;;;;;58.20;33.67;;;;;;;;;;5013525;28;25070;-64
2023/10/20 03:38:11;;;;;;;53.65;32.38;;;;;;;;;;5016087;28;25150;-63
2023/10/20 03:40:38;;;;;;;45.08;30.80;;;;;;;;;;5011705;28;25092;-65
2023/10/20 03:43:13;;;;;;;49.45;31.45;;;;;;;;;;5015355;28;25076;-64
2023/10/20 03:45:48;;;;;;;54.40;34.47;;;;;;;;;;5012199;28;25073;-64
2023/10/20 03:48:14;;;;;;;56.95;34.47;;;;;;;;;;5010893;28;25147;-64
2023/10/20 03:50:46;;;;;;;50.58;33.22;;;;;;;;;;5011721;28;25048;-64
2023/10/20 03:53:18;;;;;;;50.35;33.90;;;;;;;;;;5012586;28;25079;-63
2023/10/20 03:55:44;;;;;;;47.05;31.17;;;;;;;;;;5013169;28;25061;-64
2023/10/20 03:58:11;;;;;;;44.08;31.95;;;;;;;;;;5014160;28;25057;-62
2023/10/20 04:00:41;;;;;;;43.78;30.58;;;;;;;;;;5010383;28;25055;-65
2023/10/20 04:03:08;;;;;;;48.13;33.10;;;;;;;;;;5011215;28;25084;-64
2023/10/20 04:05:34;;;;;;;50.97;35.03;;;;;;;;;;5009530;28;25146;-64
2023/10/20 04:08:00;;;;;;;44.85;31.95;;;;;;;;;;5018251;28;25068;-64
2023/10/20 04:10:26;;;;;;;50.13;33.85;;;;;;;;;;5008046;28;25067;-64
2023/10/20 04:12:52;;;;;;;49.03;34.75;;;;;;;;;;5013058;28;25137;-64
2023/10/20 04:15:25;;;;;;;51.13;34.22;;;;;;;;;;5013250;28;25127;-64
2023/10/20 04:17:51;;;;;;;52.55;34.13;;;;;;;;;;5017475;28;25089;-62
2023/10/20 04:20:21;;;;;;;48.25;32.88;;;;;;;;;;5018158;28;25065;-64
2023/10/20 04:22:50;;;;;;;50.53;33.72;;;;;;;;;;5014075;28;25052;-63
2023/10/20 04:25:17;;;;;;;48.53;32.00;;;;;;;;;;5012699;28;25078;-63
2023/10/20 04:28:08;;;;;;;51.08;33.60;;;;;;;;;;5010293;28;25096;-63
2023/10/20 04:58:07;;;;;;;56.03;36.20;;;;;;;;;;5010524;28;25073;-63
2023/10/20 05:00:37;;;;;;;53.30;34.38;;;;;;;;;;5008630;28;25059;-64
2023/10/20 05:08:17;;;;;;;55.58;34.38;;;;;;;;;;5012154;28;25049;-64
2023/10/20 05:10:43;;;;;;;55.05;34.75;;;;;;;;;;5006570;28;25085;-63
2023/10/20 05:13:09;;;;;;;57.78;35.95;;;;;;;;;;5012937;28;25075;-64
2023/10/20 05:15:43;;;;;;;54.67;33.78;;;;;;;;;;4999952;28;25101;-63
2023/10/20 05:18:12;;;;;;;58.30;36.13;;;;;;;;;;5016186;28;25060;-62
2023/10/20 05:20:40;;;;;;;58.30;35.65;;;;;;;;;;5005743;28;25053;-62
2023/10/20 05:23:06;;;;;;;55.30;36.22;;;;;;;;;;5007728;28;25055;-62
2023/10/20 05:25:32;;;;;;;61.13;36.63;;;;;;;;;;5011892;28;25070;-63
2023/10/20 05:28:00;;;;;;;53.28;32.92;;;;;;;;;;5009377;28;25099;-63
2023/10/20 05:30:26;;;;;;;60.03;36.05;;;;;;;;;;5012427;28;25138;-63
2023/10/20 05:32:52;;;;;;;59.72;35.05;;;;;;;;;;5009583;28;25131;-62
2023/10/20 05:35:18;;;;;;;63.70;35.05;;;;;;;;;;5006280;28;25146;-62
2023/10/20 05:37:44;;;;;;;68.13;37.30;;;;;;;;;;5014575;28;25078;-63
2023/10/20 05:40:13;;;;;;;62.60;34.03;;;;;;;;;;5006113;28;25099;-62
2023/10/20 05:42:39;;;;;;;72.88;36.35;;;;;;;;;;5015239;28;25084;-63
2023/10/20 05:45:20;;;;;;;64.53;35.47;;;;;;;;;;5014073;28;25164;-65
2023/10/20 05:47:53;;;;;;;79.63;36.78;;;;;;;;;;5059724;27;25078;-63
2023/10/20 05:50:18;;;;;;;69.15;37.90;;;;;;;;;;5052515;28;25057;-62
2023/10/20 05:52:44;;;;;;;68.35;35.60;;;;;;;;;;5058599;28;25092;-62
2023/10/20 05:55:10;;;;;;;70.65;38.20;;;;;;;;;;5059096;28;25062;-62
2023/10/20 05:57:36;;;;;;;65.97;36.00;;;;;;;;;;5059753;28;25090;-63
2023/10/20 06:00:03;;;;;;;70.18;36.78;;;;;;;;;;5059127;28;25084;-63
2023/10/20 06:02:29;;;;;;;75.80;38.47;;;;;;;;;;5059500;28;25102;-64
2023/10/20 06:04:55;;;;;;;72.50;37.45;;;;;;;;;;5059734;28;25048;-63
2023/10/20 06:07:21;;;;;;;68.07;35.05;;;;;;;;;;5053340;28;25064;-61
2023/10/20 06:09:49;;;;;;;78.18;38.03;;;;;;;;;;5060705;28;25065;-63
2023/10/20 06:12:15;;;;;;;75.40;35.95;;;;;;;;;;5055562;28;25091;-64
2023/10/20 06:14:41;;;;;;;68.32;36.40;;;;;;;;;;5055756;28;25080;-64
2023/10/20 06:17:07;;;;;;;76.35;37.58;;;;;;;;;;5057564;28;25050;-64
2023/10/20 06:19:35;;;;;;;69.63;34.17;;;;;;;;;;5063084;28;25072;-65
2023/10/20 06:22:01;;;;;;;72.43;36.72;;;;;;;;;;5058237;28;25054;-63
2023/10/20 06:24:28;;;;;;;76.25;35.45;;;;;;;;;;5058064;28;25143;-64
2023/10/20 06:26:55;;;;;;;66.07;33.95;;;;;;;;;;5058054;28;25125;-64
2023/10/20 06:29:27;;;;;;;65.03;31.30;;;;;;;;;;5060991;28;25042;-61
2023/10/20 06:34:41;;;;;;;59.20;31.23;;;;;;;;;;5049255;28;25126;-64
2023/10/20 06:37:14;;;;;;;56.72;30.40;;;;;;;;;;5058702;28;25167;-63
2023/10/20 06:39:41;;;;;;;48.60;29.45;;;;;;;;;;5057325;28;25137;-64
2023/10/20 06:42:09;;;;;;;55.65;29.55;;;;;;;;;;5057614;28;25110;-62
2023/10/20 06:44:35;;;;;;;54.00;27.65;;;;;;;;;;5059950;28;25135;-62
2023/10/20 06:47:01;;;;;;;56.53;27.27;;;;;;;;;;5067987;28;25081;-64
2023/10/20 06:49:28;;;;;;;49.72;27.45;;;;;;;;;;5072009;28;25068;-67
2023/10/20 06:51:54;;;;;;;48.17;27.35;;;;;;;;;;5070786;28;25059;-65
2023/10/20 06:54:20;;;;;;;49.33;27.17;;;;;;;;;;5066741;28;25140;-65
2023/10/20 06:56:46;;;;;;;49.15;25.77;;;;;;;;;;5063731;28;25054;-65
2023/10/20 06:59:15;;;;;;;49.50;24.15;;;;;;;;;;5045523;28;25039;-64
2023/10/20 07:01:41;;;;;;;43.70;24.90;;;;;;;;;;5044021;28;25143;-63
2023/10/20 07:04:10;;;;;;;47.20;24.95;;;;;;;;;;5043147;28;25058;-62
2023/10/20 07:06:42;;;;;;;49.20;25.00;;;;;;;;;;5047135;28;25064;-64
2023/10/20 07:09:13;;;;;;;46.05;23.75;;;;;;;;;;5042178;28;25068;-65
2023/10/20 07:11:39;;;;;;;39.33;21.65;;;;;;;;;;5044901;28;25175;-64
2023/10/20 07:14:05;;;;;;;42.58;22.20;;;;;;;;;;5044313;28;25066;-65
2023/10/20 07:16:31;;;;;;;42.45;24.30;;;;;;;;;;5044711;28;25070;-66
2023/10/20 07:18:58;;;;;;;41.55;23.23;;;;;;;;;;5042990;28;25137;-65
2023/10/20 07:21:24;;;;;;;39.40;21.55;;;;;;;;;;5020879;28;25125;-63
2023/10/20 07:23:50;;;;;;;39.13;22.63;;;;;;;;;;5035870;28;25061;-66
2023/10/20 07:26:17;;;;;;;42.65;23.48;;;;;;;;;;5042714;28;25130;-64
2023/10/20 07:28:43;;;;;;;41.80;23.55;;;;;;;;;;5041992;28;25072;-67
2023/10/20 07:31:12;;;;;;;39.70;21.67;;;;;;;;;;5045533;28;25130;-64
2023/10/20 07:33:38;;;;;;;37.25;22.20;;;;;;;;;;5024160;28;25181;-63
2023/10/20 07:36:05;;;;;;;34.17;19.83;;;;;;;;;;5037064;28;25065;-64
2023/10/20 07:38:31;;;;;;;33.00;21.60;;;;;;;;;;5043224;28;25066;-64
2023/10/20 07:41:03;;;;;;;32.80;19.08;;;;;;;;;;5044432;28;25054;-64
2023/10/20 07:43:29;;;;;;;35.10;19.58;;;;;;;;;;5040889;28;25060;-64
2023/10/20 07:45:55;;;;;;;36.53;20.08;;;;;;;;;;5044415;28;25087;-65
2023/10/20 07:48:21;;;;;;;29.63;17.13;;;;;;;;;;5044354;28;25069;-63
2023/10/20 07:50:47;;;;;;;29.92;17.40;;;;;;;;;;5046755;28;25078;-64
2023/10/20 07:53:13;;;;;;;28.00;16.17;;;;;;;;;;5044917;28;25154;-64
2023/10/20 07:55:39;;;;;;;29.20;17.88;;;;;;;;;;5045127;28;25054;-64
2023/10/20 07:58:08;;;;;;;27.67;16.33;;;;;;;;;;5044588;28;25081;-65
2023/10/20 08:00:36;;;;;;;27.30;16.63;;;;;;;;;;5043828;28;25047;-64
2023/10/20 08:03:02;;;;;;;26.55;15.65;;;;;;;;;;5043854;28;25085;-64
2023/10/20 08:05:28;;;;;;;25.48;14.93;;;;;;;;;;5043540;28;25073;-65
2023/10/20 08:07:55;;;;;;;23.50;15.25;;;;;;;;;;5043824;28;25074;-66
2023/10/20 08:10:21;;;;;;;25.25;14.77;;;;;;;;;;5044839;28;25081;-64
2023/10/20 08:12:48;;;;;;;23.92;14.13;;;;;;;;;;5039321;28;25068;-64
2023/10/20 08:15:14;;;;;;;26.25;13.07;;;;;;;;;;5042706;28;25072;-64
2023/10/20 08:17:40;;;;;;;21.35;12.98;;;;;;;;;;5043279;28;25067;-66
2023/10/20 08:20:09;;;;;;;28.83;15.70;;;;;;;;;;5043763;28;25092;-65
2023/10/20 08:22:35;;;;;;;27.38;14.52;;;;;;;;;;5043137;28;25127;-63
2023/10/20 08:25:02;;;;;;;19.65;12.45;;;;;;;;;;5044506;28;25150;-64
2023/10/20 08:27:28;;;;;;;27.75;14.02;;;;;;;;;;5043576;28;25056;-63
2023/10/20 08:29:57;;;;;;;24.05;14.23;;;;;;;;;;5044028;28;25058;-64
2023/10/20 08:32:24;;;;;;;27.73;15.05;;;;;;;;;;5042376;28;25152;-63
2023/10/20 08:34:50;;;;;;;22.98;12.82;;;;;;;;;;5043944;28;25066;-64
2023/10/20 08:37:17;;;;;;;22.52;12.50;;;;;;;;;;5037734;28;25132;-65
2023/10/20 08:39:44;;;;;;;22.42;12.85;;;;;;;;;;5044709;28;25043;-65
2023/10/20 08:42:16;;;;;;;19.00;12.63;;;;;;;;;;5042306;28;25046;-65
2023/10/20 08:44:43;;;;;;;17.25;10.85;;;;;;;;;;5044739;28;25090;-65
2023/10/20 08:47:10;;;;;;;16.40;9.68;;;;;;;;;;5042496;28;25056;-65
2023/10/20 08:49:37;;;;;;;20.60;11.07;;;;;;;;;;5043795;28;25092;-65
2023/10/20 08:52:04;;;;;;;18.45;9.02;;;;;;;;;;5042947;28;25069;-63
2023/10/20 08:54:31;;;;;;;10.90;7.78;;;;;;;;;;5044380;28;25062;-64
2023/10/20 08:56:57;;;;;;;18.67;10.82;;;;;;;;;;5043103;28;25093;-65
2023/10/20 08:59:23;;;;;;;18.50;9.77;;;;;;;;;;5043512;28;25050;-66
2023/10/20 09:01:51;;;;;;;15.77;7.97;;;;;;;;;;5043447;28;25076;-64
2023/10/20 09:04:22;;;;;;;14.35;8.18;;;;;;;;;;5043009;28;25096;-65
2023/10/20 09:06:48;;;;;;;14.63;8.00;;;;;;;;;;5044114;28;25057;-66
2023/10/20 09:09:14;;;;;;;13.10;7.28;;;;;;;;;;5043865;28;25059;-63
2023/10/20 09:11:43;;;;;;;10.63;6.50;;;;;;;;;;5044988;28;25155;-65
2023/10/20 09:14:14;;;;;;;12.15;6.63;;;;;;;;;;5034044;28;25083;-65
2023/10/20 09:16:40;;;;;;;12.10;6.85;;;;;;;;;;5043573;28;25074;-65
2023/10/20 09:19:06;;;;;;;12.95;7.55;;;;;;;;;;5044425;28;25069;-64
2023/10/20 09:21:32;;;;;;;11.65;7.07;;;;;;;;;;5048277;28;25062;-64
2023/10/20 09:24:02;;;;;;;15.02;7.78;;;;;;;;;;5049303;28;25058;-66
2023/10/20 09:26:28;;;;;;;11.68;6.75;;;;;;;;;;5042339;28;25048;-67
2023/10/20 09:28:56;;;;;;;10.88;6.30;;;;;;;;;;5050375;28;25086;-64
2023/10/20 09:31:22;;;;;;;10.38;6.82;;;;;;;;;;5044747;28;25048;-64
2023/10/20 09:33:49;;;;;;;10.05;7.13;;;;;;;;;;5045496;28;25064;-65
2023/10/20 09:36:15;;;;;;;13.02;6.10;;;;;;;;;;5043067;28;25140;-63
2023/10/20 09:38:44;;;;;;;10.98;5.82;;;;;;;;;;5043612;28;25467;-61
2023/10/20 09:41:11;;;;;;;7.97;5.72;;;;;;;;;;5041407;28;27212;-65
2023/10/20 09:43:47;;;;;;;7.07;5.38;;;;;;;;;;5044618;28;25072;-66
2023/10/20 09:46:22;;;;;;;6.38;4.75;;;;;;;;;;5042341;28;25069;-62
2023/10/20 09:48:50;;;;;;;7.28;4.85;;;;;;;;;;5044206;28;25071;-63
2023/10/20 09:51:20;;;;;;;6.82;4.63;;;;;;;;;;5042847;28;25078;-66
2023/10/20 09:53:46;;;;;;;8.07;5.70;;;;;;;;;;5038868;28;25105;-64
2023/10/20 09:56:13;;;;;;;13.25;5.80;;;;;;;;;;5042019;28;25145;-64
2023/10/20 09:58:41;;;;;;;7.88;5.32;;;;;;;;;;5038390;28;25081;-66
2023/10/20 10:01:07;;;;;;;6.57;4.78;;;;;;;;;;5042351;28;25088;-63
2023/10/20 10:03:43;;;;;;;6.15;4.40;;;;;;;;;;5043190;28;25138;-62
2023/10/20 10:06:10;;;;;;;7.35;5.22;;;;;;;;;;5040534;28;25135;-64
2023/10/20 10:08:40;;;;;;;7.72;4.60;;;;;;;;;;5043674;28;25062;-63
2023/10/20 10:11:26;;;;;;;6.05;3.88;;;;;;;;;;5046742;28;25083;-65
2023/10/20 10:13:53;;;;;;;5.13;4.32;;;;;;;;;;5045327;28;25051;-64
2023/10/20 10:16:20;;;;;;;6.55;4.18;;;;;;;;;;5043431;28;25114;-63
2023/10/20 10:18:46;;;;;;;5.50;4.03;;;;;;;;;;5047406;28;25096;-63
2023/10/20 10:21:23;;;;;;;5.30;4.00;;;;;;;;;;5044361;28;25117;-63
2023/10/20 10:24:22;;;;;;;3.88;3.40;;;;;;;;;;5044061;28;25041;-65
2023/10/20 10:26:56;;;;;;;5.68;3.67;;;;;;;;;;5035812;28;25061;-65
2023/10/20 10:29:41;;;;;;;8.07;4.60;;;;;;;;;;5042212;28;25058;-65
2023/10/20 10:32:13;;;;;;;4.25;3.63;;;;;;;;;;5042854;28;25099;-66
2023/10/20 10:34:43;;;;;;;3.42;2.53;;;;;;;;;;5046569;28;25056;-63
2023/10/20 10:37:09;;;;;;;3.88;3.30;;;;;;;;;;5045713;28;25073;-65
2023/10/20 10:39:35;;;;;;;4.47;3.28;;;;;;;;;;5047686;28;25062;-63
2023/10/20 10:42:02;;;;;;;5.13;2.83;;;;;;;;;;5046688;28;25007;-63
2023/10/20 10:44:37;;;;;;;2.97;2.13;;;;;;;;;;5048013;28;25088;-65
2023/10/20 10:47:04;;;;;;;2.67;2.17;;;;;;;;;;5045249;28;25045;-64
2023/10/20 10:49:31;;;;;;;3.15;2.67;;;;;;;;;;5047526;28;25064;-62
2023/10/20 10:51:58;;;;;;;3.03;2.47;;;;;;;;;;5047035;28;25076;-65
2023/10/20 10:54:26;;;;;;;3.40;2.50;;;;;;;;;;5042551;28;25330;-63
2023/10/20 10:56:52;;;;;;;2.72;2.22;;;;;;;;;;5044937;28;25063;-66
2023/10/20 10:59:19;;;;;;;3.00;2.33;;;;;;;;;;5046990;28;25146;-64
2023/10/20 11:01:46;;;;;;;3.00;1.90;;;;;;;;;;5044868;28;25059;-62
2023/10/20 11:04:12;;;;;;;3.03;1.92;;;;;;;;;;5046861;28;25064;-61
2023/10/20 11:06:38;;;;;;;2.47;1.80;;;;;;;;;;5046662;28;25071;-61
2023/10/20 11:09:10;;;;;;;1.98;1.88;;;;;;;;;;5039921;28;25124;-62
2023/10/20 11:11:40;;;;;;;2.33;2.20;;;;;;;;;;5047169;28;25079;-63
2023/10/20 11:14:06;;;;;;;4.05;2.00;;;;;;;;;;5047064;28;25188;-62
2023/10/20 11:16:35;;;;;;;2.00;1.83;;;;;;;;;;5041450;28;25091;-62
2023/10/20 11:19:01;;;;;;;2.10;1.92;;;;;;;;;;5047333;28;25133;-62
2023/10/20 11:21:28;;;;;;;5.85;2.35;;;;;;;;;;5050616;28;25454;-62
2023/10/20 11:23:56;;;;;;;3.13;2.88;;;;;;;;;;5050725;28;25188;-63
2023/10/20 11:26:24;;;;;;;2.60;2.40;;;;;;;;;;5049854;28;25148;-64
2023/10/20 11:28:51;;;;;;;2.92;2.72;;;;;;;;;;5049330;28;25069;-64
2023/10/20 11:31:18;;;;;;;2.63;2.42;;;;;;;;;;5047089;28;25058;-63
2023/10/20 11:33:44;;;;;;;4.22;3.10;;;;;;;;;;5047013;28;25059;-62
2023/10/20 11:36:10;;;;;;;3.78;2.30;;;;;;;;;;5045605;28;25078;-63
2023/10/20 11:38:36;;;;;;;2.40;2.10;;;;;;;;;;5041273;28;25049;-64
2023/10/20 11:41:02;;;;;;;2.83;2.50;;;;;;;;;;5045238;28;25057;-63
2023/10/20 11:43:28;;;;;;;2.90;2.20;;;;;;;;;;5039667;28;25111;-64
2023/10/20 11:45:54;;;;;;;2.25;2.08;;;;;;;;;;5034285;28;25134;-65
2023/10/20 11:48:21;;;;;;;3.25;2.30;;;;;;;;;;5042684;28;25077;-62
2023/10/20 11:50:47;;;;;;;3.03;2.60;;;;;;;;;;5046383;28;25057;-65
2023/10/20 11:53:13;;;;;;;2.58;2.33;;;;;;;;;;5047514;28;25180;-64
2023/10/20 11:55:39;;;;;;;2.92;2.20;;;;;;;;;;5048841;28;25041;-63
2023/10/20 11:58:05;;;;;;;2.33;2.13;;;;;;;;;;5049066;28;25052;-65
2023/10/20 12:00:32;;;;;;;3.15;1.90;;;;;;;;;;5042792;28;25061;-64
2023/10/20 12:02:58;;;;;;;2.55;1.92;;;;;;;;;;5047038;28;25118;-64
2023/10/20 12:05:24;;;;;;;2.40;2.17;;;;;;;;;;5045857;28;25127;-69
2023/10/20 12:07:51;;;;;;;2.47;2.28;;;;;;;;;;5047976;28;25076;-64
2023/10/20 12:10:17;;;;;;;2.47;2.28;;;;;;;;;;5044550;28;25087;-63
2023/10/20 12:12:43;;;;;;;3.08;2.60;;;;;;;;;;5045126;28;25096;-63
2023/10/20 12:15:09;;;;;;;3.10;2.90;;;;;;;;;;5046124;28;25068;-65
2023/10/20 12:17:36;;;;;;;2.90;2.53;;;;;;;;;;5045754;28;25129;-64
2023/10/20 12:20:02;;;;;;;2.92;2.70;;;;;;;;;;5045961;28;25047;-65
2023/10/20 12:22:28;;;;;;;4.97;3.28;;;;;;;;;;5040067;28;25095;-63
2023/10/20 12:24:54;;;;;;;3.85;3.55;;;;;;;;;;5044885;28;25086;-65
2023/10/20 12:27:21;;;;;;;3.95;3.65;;;;;;;;;;5046477;28;25059;-64
2023/10/20 12:29:47;;;;;;;3.50;3.20;;;;;;;;;;5051452;28;25053;-63
2023/10/20 12:32:13;;;;;;;3.03;2.80;;;;;;;;;;5040471;28;25074;-63
2023/10/20 12:34:39;;;;;;;4.07;3.70;;;;;;;;;;5045203;28;25059;-62
2023/10/20 12:37:05;;;;;;;3.33;3.13;;;;;;;;;;5037499;28;25149;-62
2023/10/20 12:39:34;;;;;;;4.03;3.63;;;;;;;;;;5042421;28;25052;-64
2023/10/20 12:42:03;;;;;;;4.90;4.10;;;;;;;;;;5044240;28;25043;-63
2023/10/20 12:44:29;;;;;;;4.25;3.03;;;;;;;;;;5038453;28;25109;-61
2023/10/20 12:46:55;;;;;;;4.00;3.60;;;;;;;;;;5044058;28;25058;-61
2023/10/20 12:49:21;;;;;;;4.93;3.75;;;;;;;;;;5045022;28;25063;-62
2023/10/20 12:51:48;;;;;;;4.65;4.25;;;;;;;;;;5043972;28;25054;-61
2023/10/20 12:54:14;;;;;;;3.60;3.30;;;;;;;;;;5043670;28;25074;-63
2023/10/20 12:56:40;;;;;;;4.35;4.05;;;;;;;;;;5043606;28;25095;-61
2023/10/20 12:59:06;;;;;;;4.13;3.72;;;;;;;;;;5044745;28;25071;-61
2023/10/20 13:01:32;;;;;;;9.10;4.00;;;;;;;;;;5043089;28;25120;-62
2023/10/20 13:03:59;;;;;;;3.67;3.38;;;;;;;;;;5045545;28;25128;-62
2023/10/20 13:06:25;;;;;;;4.45;4.05;;;;;;;;;;5041085;28;25127;-63
2023/10/20 13:08:51;;;;;;;11.77;5.88;;;;;;;;;;5040343;28;25140;-61
2023/10/20 13:11:18;;;;;;;2.83;2.60;;;;;;;;;;5039901;28;25083;-62
2023/10/20 13:13:44;;;;;;;4.15;3.85;;;;;;;;;;5044833;28;25055;-61
2023/10/20 13:16:09;;;;;;;7.35;5.95;;;;;;;;;;5044148;28;25065;-61
2023/10/20 13:18:35;;;;;;;9.25;5.47;;;;;;;;;;5044010;28;25142;-62
2023/10/20 13:21:03;;;;;;;5.38;4.88;;;;;;;;;;5043806;28;25064;-64
2023/10/20 13:23:29;;;;;;;5.28;4.80;;;;;;;;;;5043316;28;25069;-62
2023/10/20 13:26:04;;;;;;;8.27;6.07;;;;;;;;;;5044453;28;25160;-62
2023/10/20 13:28:30;;;;;;;6.57;5.97;;;;;;;;;;5041474;28;25155;-62
2023/10/20 13:31:17;;;;;;;5.70;5.20;;;;;;;;;;5042245;28;25055;-62
2023/10/20 13:33:44;;;;;;;6.95;5.13;;;;;;;;;;5043263;28;25070;-61
2023/10/20 13:36:10;;;;;;;5.28;4.78;;;;;;;;;;5038609;28;25096;-61
2023/10/20 13:38:37;;;;;;;5.70;4.72;;;;;;;;;;5044462;28;25069;-62
2023/10/20 13:41:04;;;;;;;5.45;4.95;;;;;;;;;;5037513;28;25055;-63
2023/10/20 13:43:30;;;;;;;5.15;4.75;;;;;;;;;;5043968;28;25074;-63
2023/10/20 13:45:55;;;;;;;6.70;6.10;;;;;;;;;;5044307;28;25046;-63
2023/10/20 13:48:21;;;;;;;8.02;4.80;;;;;;;;;;5044012;28;25047;-66
2023/10/20 13:50:47;;;;;;;6.10;5.60;;;;;;;;;;5035823;28;25085;-64
2023/10/20 13:53:14;;;;;;;8.43;5.45;;;;;;;;;;5042438;28;25063;-65
2023/10/20 13:55:44;;;;;;;4.68;3.42;;;;;;;;;;5043849;28;25168;-63
2023/10/20 13:58:11;;;;;;;11.52;5.70;;;;;;;;;;5043786;28;25099;-62
2023/10/20 14:00:37;;;;;;;6.40;5.80;;;;;;;;;;5024769;28;25072;-63
2023/10/20 14:03:04;;;;;;;5.95;5.45;;;;;;;;;;5013813;28;25069;-63
2023/10/20 14:05:29;;;;;;;4.18;3.88;;;;;;;;;;5018420;28;25065;-63
2023/10/20 14:07:59;;;;;;;6.07;5.20;;;;;;;;;;5008123;28;25054;-65
2023/10/20 14:10:26;;;;;;;7.20;5.78;;;;;;;;;;5021095;28;25100;-64
2023/10/20 14:12:53;;;;;;;28.40;26.55;;;;;;;;;;5014426;28;25085;-63
2023/10/20 14:15:19;;;;;;;5.30;4.80;;;;;;;;;;5015117;28;25085;-63
2023/10/20 14:17:45;;;;;;;3.35;3.05;;;;;;;;;;5024458;28;25049;-63
2023/10/20 14:20:11;;;;;;;4.88;3.67;;;;;;;;;;5018503;28;25123;-63
2023/10/20 14:22:37;;;;;;;4.93;3.60;;;;;;;;;;5022873;28;25088;-64
2023/10/20 14:25:03;;;;;;;4.00;3.17;;;;;;;;;;5020733;28;25105;-66
2023/10/20 14:27:33;;;;;;;7.75;4.28;;;;;;;;;;5013620;28;25102;-63
2023/10/20 14:29:59;;;;;;;7.43;3.95;;;;;;;;;;5022974;28;25062;-65
2023/10/20 14:32:25;;;;;;;8.75;5.80;;;;;;;;;;5016965;28;25067;-64
2023/10/20 14:34:51;;;;;;;7.28;4.75;;;;;;;;;;5020161;28;25090;-66
2023/10/20 14:37:17;;;;;;;6.78;4.82;;;;;;;;;;5015696;28;25137;-63
2023/10/20 14:39:43;;;;;;;7.72;5.68;;;;;;;;;;5015316;28;25160;-64
2023/10/20 14:42:09;;;;;;;18.58;5.72;;;;;;;;;;5016500;28;25134;-62
2023/10/20 14:44:35;;;;;;;8.30;5.90;;;;;;;;;;5020420;28;25108;-64
2023/10/20 14:47:01;;;;;;;11.55;6.70;;;;;;;;;;5030323;28;25075;-66
2023/10/20 14:49:27;;;;;;;10.85;5.95;;;;;;;;;;5025453;28;25064;-63
2023/10/20 14:51:53;;;;;;;12.40;7.82;;;;;;;;;;5029344;28;25100;-63
2023/10/20 14:54:19;;;;;;;18.65;9.55;;;;;;;;;;5018092;28;25146;-62
2023/10/20 14:56:45;;;;;;;15.55;9.23;;;;;;;;;;5015382;28;25083;-62
2023/10/20 14:59:11;;;;;;;21.83;10.63;;;;;;;;;;5019732;28;25059;-62
2023/10/20 15:01:37;;;;;;;15.27;9.68;;;;;;;;;;5021068;28;25078;-63